Terminal Aerodrome Forecast
Issued by NWS Duluth, MN

Home | Current Version | Previous Version | Text Only | Print | Product List | Glossary On
Versions: 1 2 3 4 5 6 7 8 9 10 11 12 13 14 15 16 17 18 19 20 21 22 23 24 25 26 27
000
FTUS43 KDLH 221500 AAA
TAFDLH
TAF AMD
KDLH 221520Z 2215/2312 17010G21KT P6SM SKC
     FM222100 13010KT P6SM SCT050 BKN080
     FM230200 12005KT P6SM VCSH BKN035 OVC050
     FM230900 17008KT 6SM -RA SCT010 OVC025=

USA.gov is the U.S. government's official web portal to all federal, state and local government web resources and services.